Kezdőlap
METAR-TAF:

METAR-TAF

Repülőterek :

Southwest Minnesota Regional Airport (Marshall/Ryan Field)

Marshall, Minnesota, Amerikai Egyesült Államok

földrajzi szélesség: 44-27N, földrajzi hosszúság: 095-49W, magasság: 359 m

Jelenlegi meteorológiai megfigyelések

A jelentés 32 perccel ezelõtt készült, 15:56 UTC
Északi szél 20 kt széllökések: 27 kt
Hőmérséklet 7°C
Páratartalom 61%
Légköri nyomás 1025 hPa
Látótávolság: 16.1 km
Szakadozott felhőzet 3000 lábon

METAR: KMML 011556Z AUTO 35020G27KT 10SM BKN030 07/00 A3027 RMK AO2 PK WND 33027/1551 SLP257 T00720000

Idő: 11:28 (16:28 UTC)


TAF: hiányzik

Meteorológiai megfigyelések és előrejelzések több, mint 4000 repülőtéren (METAR és TAF jelentéseket).

A térképen piros és sárga pontok jelzik az elérhető meteorológiai állomásokat.

Mozgassa az egeret a pont fölött, hogy megjelenjen az állomás neve.

Azután kattintson az időjárási megfigyelések és előrejelzések megtekintéséhez.

A térkép megváltoztatása: kattintson a fekete keresztel jelölt zöld gombra ráközelítéshez, a vonallal jelölt zöld gombra távolításhoz, vagy a zöld nyilakra a szomszédos térképek eléréséhez.


METAR-TAF: